createdAt,value
2018-04-15T00:00:24.884Z,99.90
2018-04-15T00:02:52.336Z,99.90
2018-04-15T00:05:22.014Z,99.90
2018-04-15T00:07:51.175Z,99.90
2018-04-15T00:10:18.626Z,99.90
2018-04-15T00:12:46.108Z,99.90
2018-04-15T00:15:13.556Z,99.90
2018-04-15T00:17:41.048Z,99.90
2018-04-15T00:20:10.180Z,99.90
2018-04-15T00:22:37.708Z,99.90
2018-04-15T00:25:05.197Z,99.90
2018-04-15T00:27:32.721Z,99.90
2018-04-15T00:30:04.056Z,99.90
2018-04-15T00:32:31.501Z,99.90
2018-04-15T00:34:59.603Z,99.90
2018-04-15T00:37:27.859Z,99.90
2018-04-15T00:39:55.329Z,99.90
2018-04-15T00:42:22.811Z,99.90
2018-04-15T00:44:54.203Z,99.90
2018-04-15T00:47:28.585Z,99.90
2018-04-15T00:49:56.127Z,99.90
2018-04-15T00:52:23.584Z,99.90
2018-04-15T00:54:51.026Z,99.90
2018-04-15T00:57:20.184Z,99.90
2018-04-15T00:59:47.685Z,99.90
2018-04-15T01:02:18.911Z,99.90
2018-04-15T01:04:46.361Z,99.90
2018-04-15T01:07:14.604Z,99.90
2018-04-15T01:09:42.907Z,99.90
2018-04-15T01:12:10.495Z,99.90
2018-04-15T01:14:39.993Z,99.90
2018-04-15T01:17:08.263Z,99.90
2018-04-15T01:22:35.105Z,99.90
2018-04-15T01:25:02.575Z,99.90
2018-04-15T01:27:30.114Z,99.90
2018-04-15T01:29:57.553Z,99.90
2018-04-15T01:32:25.053Z,99.90
2018-04-15T01:34:52.521Z,99.90
2018-04-15T01:37:20.000Z,99.90
2018-04-15T01:39:48.287Z,99.90
2018-04-15T01:42:15.780Z,99.90
2018-04-15T01:44:43.271Z,99.90
2018-04-15T01:47:11.486Z,99.90
2018-04-15T01:49:39.010Z,99.90
2018-04-15T01:52:08.063Z,99.90
2018-04-15T01:54:35.668Z,99.90
2018-04-15T01:57:03.115Z,99.90
2018-04-15T01:59:30.580Z,99.90
2018-04-15T02:02:02.316Z,99.90
2018-04-15T02:04:29.797Z,99.90
2018-04-15T02:06:57.258Z,99.90
2018-04-15T02:09:24.780Z,99.90
2018-04-15T02:11:52.249Z,99.90
2018-04-15T02:14:19.705Z,99.90
2018-04-15T02:16:50.446Z,99.90
2018-04-15T02:19:17.925Z,99.90
2018-04-15T02:21:47.092Z,99.90
2018-04-15T02:24:14.908Z,99.90
2018-04-15T02:26:42.387Z,99.90
2018-04-15T02:29:09.882Z,99.90
2018-04-15T02:31:41.025Z,99.90
2018-04-15T02:34:08.501Z,99.90
2018-04-15T02:36:36.090Z,99.90
2018-04-15T02:39:03.597Z,99.90
2018-04-15T02:41:31.070Z,99.90
2018-04-15T02:43:58.555Z,99.90
2018-04-15T02:46:26.045Z,99.90
2018-04-15T02:48:53.730Z,99.90
2018-04-15T02:51:21.214Z,99.90
2018-04-15T02:53:49.264Z,99.90
2018-04-15T02:56:17.030Z,99.90
2018-04-15T02:58:44.508Z,99.90
2018-04-15T03:01:11.965Z,99.90
2018-04-15T03:03:43.195Z,99.90
2018-04-15T03:06:11.410Z,99.90
2018-04-15T03:08:38.884Z,99.90
2018-04-15T03:11:06.989Z,99.90
2018-04-15T03:13:34.449Z,99.90
2018-04-15T03:16:02.179Z,99.90
2018-04-15T03:18:32.929Z,99.90
2018-04-15T03:21:00.381Z,99.90
2018-04-15T03:23:28.974Z,99.90
2018-04-15T03:25:56.427Z,99.90
2018-04-15T03:28:23.950Z,99.90
2018-04-15T03:30:51.422Z,99.90
2018-04-15T03:33:18.881Z,99.90
2018-04-15T03:35:46.366Z,99.90
2018-04-15T03:38:13.841Z,99.90
2018-04-15T03:40:43.008Z,99.90
2018-04-15T03:43:10.463Z,99.90
2018-04-15T03:45:38.140Z,99.90
2018-04-15T03:48:06.522Z,99.90
2018-04-15T03:50:33.991Z,99.90
2018-04-15T03:53:01.670Z,99.90
2018-04-15T03:55:29.126Z,99.90
2018-04-15T03:57:56.605Z,99.90
2018-04-15T04:00:24.633Z,99.90
2018-04-15T04:02:53.102Z,99.90
2018-04-15T04:05:21.472Z,99.90
2018-04-15T04:07:49.061Z,99.90
2018-04-15T04:10:16.513Z,99.90
2018-04-15T04:12:45.680Z,99.90
2018-04-15T04:15:13.374Z,99.90
2018-04-15T04:17:52.735Z,99.90
2018-04-15T04:20:32.001Z,99.90
2018-04-15T04:23:11.474Z,99.90
2018-04-15T04:25:50.942Z,99.90
2018-04-15T04:28:18.393Z,99.90
2018-04-15T04:30:45.874Z,99.90
2018-04-15T04:33:13.340Z,99.90
2018-04-15T04:35:41.871Z,99.90
2018-04-15T04:38:09.338Z,99.90
2018-04-15T04:40:36.829Z,99.90
2018-04-15T04:43:04.294Z,99.90
2018-04-15T04:45:31.757Z,99.90
2018-04-15T04:47:59.244Z,99.90
2018-04-15T04:50:26.697Z,99.90
2018-04-15T04:52:54.181Z,99.90
2018-04-15T04:55:22.426Z,99.90
2018-04-15T04:57:49.902Z,99.90
2018-04-15T05:00:17.400Z,99.90
2018-04-15T05:02:44.864Z,99.90
2018-04-15T05:05:12.358Z,99.90
2018-04-15T05:07:39.856Z,99.90
2018-04-15T05:10:08.095Z,99.90
2018-04-15T05:12:35.549Z,99.90
2018-04-15T05:15:03.835Z,99.90
2018-04-15T05:17:31.297Z,99.90
2018-04-15T05:19:58.805Z,99.90
2018-04-15T05:22:26.258Z,99.90
2018-04-15T05:24:53.775Z,99.90
2018-04-15T05:27:21.282Z,99.90
2018-04-15T05:29:48.737Z,99.90
2018-04-15T05:32:17.152Z,99.90
2018-04-15T05:34:44.640Z,99.90
2018-04-15T05:37:12.885Z,99.90
2018-04-15T05:39:40.577Z,99.90
2018-04-15T05:42:08.068Z,99.90
2018-04-15T05:44:35.590Z,99.90
2018-04-15T05:47:03.129Z,99.90
2018-04-15T05:49:30.760Z,99.90
2018-04-15T05:51:58.261Z,99.90
2018-04-15T05:54:25.722Z,99.90
2018-04-15T05:56:53.944Z,99.90
2018-04-15T05:59:21.409Z,99.90
2018-04-15T06:01:48.897Z,99.90
2018-04-15T06:04:16.342Z,99.90
2018-04-15T06:06:44.625Z,99.90
2018-04-15T06:09:12.124Z,99.90
2018-04-15T06:11:40.680Z,99.90
2018-04-15T06:14:08.181Z,99.90
2018-04-15T06:16:35.879Z,99.90
2018-04-15T06:19:04.482Z,99.90
2018-04-15T06:21:31.984Z,99.90
2018-04-15T06:23:59.421Z,99.90
2018-04-15T06:26:26.901Z,99.90
2018-04-15T06:28:54.379Z,99.90
2018-04-15T06:31:21.861Z,99.90
2018-04-15T06:33:49.665Z,99.90
2018-04-15T06:36:21.577Z,99.90
2018-04-15T06:38:52.535Z,99.90
2018-04-15T06:41:20.008Z,99.90
2018-04-15T06:43:49.732Z,99.90
2018-04-15T06:46:17.208Z,99.90
2018-04-15T06:48:44.704Z,99.90
2018-04-15T06:51:12.192Z,99.90
2018-04-15T06:53:39.685Z,99.90
2018-04-15T06:56:07.729Z,99.90
2018-04-15T06:58:35.177Z,99.90
2018-04-15T07:01:02.661Z,99.90
2018-04-15T07:03:30.115Z,99.90
2018-04-15T07:05:57.602Z,99.90
2018-04-15T07:08:25.200Z,99.90
2018-04-15T07:10:52.753Z,99.90
2018-04-15T07:13:21.950Z,99.90
2018-04-15T07:15:49.411Z,99.90
2018-04-15T07:18:16.899Z,99.90
2018-04-15T07:20:44.354Z,99.90
2018-04-15T07:23:15.494Z,99.90
2018-04-15T07:25:43.787Z,99.90
2018-04-15T07:28:11.241Z,99.90
2018-04-15T07:30:39.166Z,99.90
2018-04-15T07:33:06.648Z,99.90
2018-04-15T07:35:34.100Z,99.90
2018-04-15T07:38:01.608Z,99.90
2018-04-15T07:40:29.120Z,99.90
2018-04-15T07:42:56.569Z,99.90
2018-04-15T07:45:24.852Z,99.90
2018-04-15T07:47:53.105Z,99.90
2018-04-15T07:50:20.654Z,99.90
2018-04-15T07:52:48.125Z,99.90
2018-04-15T07:55:15.598Z,99.90
2018-04-15T07:57:44.460Z,99.90
2018-04-15T08:00:11.933Z,99.90
2018-04-15T08:02:40.237Z,99.90
2018-04-15T08:05:09.470Z,99.90
2018-04-15T08:07:36.922Z,99.90
2018-04-15T08:10:04.402Z,99.90
2018-04-15T08:12:32.096Z,99.90
2018-04-15T08:14:59.588Z,99.90
2018-04-15T08:17:27.655Z,99.90
2018-04-15T08:19:55.144Z,99.90
2018-04-15T08:22:26.749Z,99.90
2018-04-15T08:24:54.281Z,99.90
2018-04-15T08:27:22.711Z,99.90
2018-04-15T08:29:50.164Z,99.90
2018-04-15T08:32:17.629Z,99.90
2018-04-15T08:34:45.133Z,99.90
2018-04-15T08:37:12.608Z,99.90
2018-04-15T08:39:41.782Z,99.90
2018-04-15T08:42:09.257Z,99.90
2018-04-15T08:44:37.025Z,99.90
2018-04-15T08:47:04.493Z,99.90
2018-04-15T08:49:32.074Z,99.90
2018-04-15T08:51:59.545Z,99.90
2018-04-15T08:54:27.038Z,99.90
2018-04-15T08:56:55.436Z,99.90
2018-04-15T08:59:22.939Z,99.90
2018-04-15T09:01:50.439Z,99.90
2018-04-15T09:04:17.925Z,99.90
2018-04-15T09:06:45.866Z,99.90
2018-04-15T09:09:19.567Z,99.90
2018-04-15T09:11:47.018Z,99.90
2018-04-15T09:14:15.710Z,99.90
2018-04-15T09:16:43.162Z,99.90
2018-04-15T09:19:10.649Z,99.90
2018-04-15T09:21:39.830Z,99.90
2018-04-15T09:24:11.582Z,99.90
2018-04-15T09:26:40.953Z,99.90
2018-04-15T09:29:08.452Z,99.90
2018-04-15T09:31:36.743Z,99.90
2018-04-15T09:34:04.896Z,99.90
2018-04-15T09:36:32.421Z,99.90
2018-04-15T09:39:03.692Z,99.90
2018-04-15T09:41:31.199Z,99.90
2018-04-15T09:43:59.629Z,99.90
2018-04-15T09:46:27.263Z,99.90
2018-04-15T09:48:54.774Z,99.90
2018-04-15T09:51:23.003Z,99.90
2018-04-15T09:53:50.491Z,99.90
2018-04-15T09:56:17.946Z,99.90
2018-04-15T09:58:45.446Z,99.90
2018-04-15T10:01:16.627Z,99.90
2018-04-15T10:03:44.115Z,99.90
2018-04-15T10:06:11.574Z,99.90
2018-04-15T10:08:39.105Z,99.90
2018-04-15T10:11:14.260Z,99.90
2018-04-15T10:13:41.730Z,99.90
2018-04-15T10:16:09.982Z,99.90
2018-04-15T10:18:37.438Z,99.90
2018-04-15T10:21:04.932Z,99.90
2018-04-15T10:23:32.381Z,99.90
2018-04-15T10:25:59.885Z,99.90
2018-04-15T10:28:28.182Z,99.90
2018-04-15T10:30:55.701Z,99.90
2018-04-15T10:33:23.165Z,99.90
2018-04-15T10:35:50.704Z,99.90
2018-04-15T10:38:18.204Z,99.90
2018-04-15T10:40:45.669Z,99.90
2018-04-15T10:43:13.172Z,99.90
2018-04-15T10:45:40.627Z,99.90
2018-04-15T10:48:08.125Z,99.80
2018-04-15T10:50:37.301Z,98.60
2018-04-15T10:53:04.918Z,98.60
2018-04-15T10:55:32.380Z,98.20
2018-04-15T10:57:59.960Z,98.00
2018-04-15T11:00:28.276Z,97.90
2018-04-15T11:02:55.778Z,97.90
2018-04-15T11:05:24.060Z,98.60
2018-04-15T11:07:51.561Z,98.40
2018-04-15T11:10:19.052Z,97.70
2018-04-15T11:12:46.839Z,97.10
2018-04-15T11:15:15.072Z,96.60
2018-04-15T11:17:42.567Z,95.80
2018-04-15T11:20:10.075Z,95.70
2018-04-15T11:22:37.540Z,96.00
2018-04-15T11:25:05.040Z,95.00
2018-04-15T11:27:32.504Z,94.10
2018-04-15T11:30:00.036Z,93.90
2018-04-15T11:32:28.803Z,94.30
2018-04-15T11:34:56.487Z,93.70
2018-04-15T11:37:23.949Z,93.60
2018-04-15T11:39:51.433Z,92.50
2018-04-15T11:42:19.248Z,92.30
2018-04-15T11:44:47.524Z,92.60
2018-04-15T11:47:15.033Z,92.20
2018-04-15T11:49:43.268Z,93.00
2018-04-15T11:52:10.757Z,92.90
2018-04-15T11:54:38.254Z,92.50
2018-04-15T11:57:05.738Z,92.80
2018-04-15T11:59:33.209Z,92.30
2018-04-15T12:02:01.367Z,92.00
2018-04-15T12:04:28.854Z,92.00
2018-04-15T12:06:56.388Z,91.60
2018-04-15T12:09:23.883Z,91.30
2018-04-15T12:11:52.151Z,90.80
2018-04-15T12:14:20.252Z,90.80
2018-04-15T12:16:47.737Z,90.60
2018-04-15T12:19:15.196Z,90.40
2018-04-15T12:21:42.912Z,90.60
2018-04-15T12:24:10.555Z,91.40
2018-04-15T12:26:41.341Z,90.40
2018-04-15T12:29:10.466Z,89.50
2018-04-15T12:31:37.948Z,89.50
2018-04-15T12:34:05.419Z,90.00
2018-04-15T12:36:32.929Z,90.00
2018-04-15T12:39:00.406Z,90.40
2018-04-15T12:41:27.933Z,90.70
2018-04-15T12:43:55.478Z,90.70
2018-04-15T12:46:24.171Z,90.80
2018-04-15T12:48:51.827Z,90.90
2018-04-15T12:51:19.345Z,91.00
2018-04-15T12:53:46.809Z,91.10
2018-04-15T12:56:14.338Z,90.40
2018-04-15T12:58:42.785Z,89.40
2018-04-15T13:01:10.271Z,88.70
2018-04-15T13:03:37.783Z,89.40
2018-04-15T13:06:05.431Z,90.20
2018-04-15T13:08:32.882Z,89.50
2018-04-15T13:11:01.170Z,88.10
2018-04-15T13:13:28.631Z,88.00
2018-04-15T13:15:56.647Z,88.50
2018-04-15T13:18:24.212Z,90.70
2018-04-15T13:20:51.822Z,89.80
2018-04-15T13:23:19.430Z,89.50
2018-04-15T13:25:46.962Z,90.10
2018-04-15T13:28:14.416Z,88.40
2018-04-15T13:30:41.938Z,87.40
2018-04-15T13:33:10.332Z,87.10
2018-04-15T13:35:37.817Z,86.20
2018-04-15T13:38:05.303Z,86.70
2018-04-15T13:40:32.762Z,86.60
2018-04-15T13:43:00.415Z,87.10
2018-04-15T13:45:27.966Z,89.00
2018-04-15T13:47:55.421Z,89.10
2018-04-15T13:50:22.889Z,90.10
2018-04-15T13:52:50.373Z,87.30
2018-04-15T13:55:18.607Z,87.00
2018-04-15T13:57:46.110Z,86.30
2018-04-15T14:00:13.590Z,88.50
2018-04-15T14:02:41.854Z,90.60
2018-04-15T14:05:10.074Z,89.60
2018-04-15T14:07:37.789Z,89.60
2018-04-15T14:10:05.288Z,89.30
2018-04-15T14:12:32.798Z,87.90
2018-04-15T14:15:05.347Z,86.90
2018-04-15T14:17:32.901Z,86.20
2018-04-15T14:20:00.400Z,86.60
2018-04-15T14:22:27.900Z,87.60
2018-04-15T14:24:55.388Z,87.80
2018-04-15T14:27:22.842Z,85.20
2018-04-15T14:29:53.906Z,85.40
2018-04-15T14:32:22.128Z,86.30
2018-04-15T14:34:49.685Z,85.50
2018-04-15T14:37:17.144Z,85.40
2018-04-15T14:39:44.633Z,85.50
2018-04-15T14:42:12.131Z,85.60
2018-04-15T14:44:39.593Z,86.10
2018-04-15T14:47:07.148Z,85.80
2018-04-15T14:49:34.638Z,87.50
2018-04-15T14:52:02.105Z,86.80
2018-04-15T14:54:30.161Z,85.60
2018-04-15T14:56:57.958Z,86.50
2018-04-15T14:59:28.777Z,87.00
2018-04-15T15:01:56.514Z,85.50
2018-04-15T15:04:25.776Z,86.10
2018-04-15T15:06:53.242Z,86.10
2018-04-15T15:09:20.737Z,86.30
2018-04-15T15:11:48.231Z,86.80
2018-04-15T15:14:27.184Z,84.70
2018-04-15T15:16:54.656Z,84.30
2018-04-15T15:19:22.216Z,84.50
2018-04-15T15:21:49.643Z,84.70
2018-04-15T15:24:17.108Z,84.40
2018-04-15T15:26:44.589Z,84.60
2018-04-15T15:29:12.053Z,86.70
2018-04-15T15:31:41.028Z,86.60
2018-04-15T15:34:08.523Z,86.50
2018-04-15T15:36:36.028Z,86.40
2018-04-15T15:39:03.542Z,86.60
2018-04-15T15:41:31.001Z,87.20
2018-04-15T15:43:59.311Z,86.50
2018-04-15T15:46:26.869Z,86.40
2018-04-15T15:48:54.379Z,86.60
2018-04-15T15:51:22.474Z,87.30
2018-04-15T15:53:49.936Z,87.40
2018-04-15T15:56:17.408Z,87.60
2018-04-15T15:58:44.941Z,86.50
2018-04-15T16:01:13.350Z,86.80
2018-04-15T16:03:40.860Z,86.60
2018-04-15T16:06:08.324Z,88.20
2018-04-15T16:08:36.582Z,89.10
2018-04-15T16:11:04.050Z,89.40
2018-04-15T16:13:32.272Z,89.80
2018-04-15T16:15:59.760Z,90.00
2018-04-15T16:18:28.017Z,89.10
2018-04-15T16:20:55.553Z,89.00
2018-04-15T16:23:23.024Z,88.70
2018-04-15T16:25:50.490Z,89.10
2018-04-15T16:28:17.961Z,87.70
2018-04-15T16:30:51.244Z,90.30
2018-04-15T16:33:18.769Z,90.20
2018-04-15T16:35:46.653Z,90.40
2018-04-15T16:38:14.115Z,90.10
2018-04-15T16:40:41.592Z,90.20
2018-04-15T16:43:09.337Z,90.70
2018-04-15T16:45:36.895Z,91.10
2018-04-15T16:48:06.039Z,91.10
2018-04-15T16:50:34.300Z,90.70
2018-04-15T16:53:02.525Z,90.70
2018-04-15T16:55:29.989Z,90.60
2018-04-15T16:57:57.485Z,90.60
2018-04-15T17:00:25.046Z,90.80
2018-04-15T17:02:59.483Z,90.70
2018-04-15T17:05:27.040Z,90.50
2018-04-15T17:07:55.409Z,90.20
2018-04-15T17:10:22.907Z,90.60
2018-04-15T17:12:50.369Z,90.70
2018-04-15T17:15:17.876Z,90.80
2018-04-15T17:17:46.218Z,91.60
2018-04-15T17:20:14.473Z,91.60
2018-04-15T17:22:41.978Z,92.00
2018-04-15T17:25:09.484Z,92.10
2018-04-15T17:27:36.961Z,94.20
2018-04-15T17:30:04.446Z,93.60
2018-04-15T17:32:36.447Z,92.90
2018-04-15T17:37:38.739Z,93.30
2018-04-15T17:40:06.378Z,93.20
2018-04-15T17:42:35.539Z,93.10
2018-04-15T17:45:03.021Z,92.80
2018-04-15T17:47:30.480Z,93.20
2018-04-15T17:49:57.980Z,94.70
2018-04-15T17:52:25.622Z,94.80
2018-04-15T17:54:53.889Z,94.90
2018-04-15T17:57:21.636Z,95.60
2018-04-15T17:59:49.400Z,97.80
2018-04-15T18:02:28.256Z,97.30
2018-04-15T18:04:55.755Z,97.60
2018-04-15T18:07:23.299Z,99.90
2018-04-15T18:09:50.837Z,99.70
2018-04-15T18:12:18.319Z,99.40
2018-04-15T18:14:45.839Z,99.50
2018-04-15T18:17:13.327Z,99.40
2018-04-15T18:19:40.813Z,99.60
2018-04-15T18:22:09.008Z,99.90
2018-04-15T18:24:36.465Z,99.90
2018-04-15T18:27:04.718Z,99.90
2018-04-15T18:29:32.168Z,99.90
2018-04-15T18:31:59.629Z,99.90
2018-04-15T18:34:27.874Z,99.90
2018-04-15T18:36:55.427Z,99.90
2018-04-15T18:39:22.889Z,99.90
2018-04-15T18:41:50.630Z,99.90
2018-04-15T18:44:18.077Z,99.90
2018-04-15T18:46:45.555Z,99.90
2018-04-15T18:49:13.040Z,99.90
2018-04-15T18:51:40.587Z,99.90
2018-04-15T18:54:08.046Z,99.90
2018-04-15T18:56:36.340Z,99.90
2018-04-15T18:59:03.793Z,99.90
2018-04-15T19:01:31.285Z,99.90
2018-04-15T19:03:59.525Z,99.90
2018-04-15T19:06:26.977Z,99.90
2018-04-15T19:08:56.030Z,99.90
2018-04-15T19:11:23.498Z,99.90
2018-04-15T19:13:50.957Z,99.90
2018-04-15T19:16:18.506Z,99.90
2018-04-15T19:18:46.014Z,99.90
2018-04-15T19:21:13.779Z,99.90
2018-04-15T19:23:41.316Z,99.90
2018-04-15T19:26:09.100Z,99.90
2018-04-15T19:28:36.565Z,99.90
2018-04-15T19:31:04.105Z,99.90
2018-04-15T19:33:31.558Z,99.90
2018-04-15T19:35:59.866Z,99.90
2018-04-15T19:38:28.082Z,99.90
2018-04-15T19:40:55.567Z,99.90
2018-04-15T19:43:23.046Z,99.90
2018-04-15T19:45:50.541Z,99.90
2018-04-15T19:48:18.041Z,99.90
2018-04-15T19:50:45.493Z,99.90
2018-04-15T19:53:13.996Z,99.90
2018-04-15T19:55:41.773Z,99.90
2018-04-15T19:58:09.254Z,99.90
2018-04-15T20:00:36.738Z,99.90
2018-04-15T20:03:04.460Z,99.90
2018-04-15T20:05:31.929Z,99.90
2018-04-15T20:07:59.414Z,99.90
2018-04-15T20:10:26.989Z,99.90
2018-04-15T20:12:56.153Z,99.90
2018-04-15T20:15:23.631Z,99.90
2018-04-15T20:17:51.437Z,99.90
2018-04-15T20:20:22.749Z,99.90
2018-04-15T20:22:50.701Z,99.90
2018-04-15T20:25:18.960Z,99.90
2018-04-15T20:27:46.418Z,99.90
2018-04-15T20:30:14.141Z,99.90
2018-04-15T20:32:41.617Z,99.90
2018-04-15T20:35:09.521Z,99.90
2018-04-15T20:37:37.025Z,99.90
2018-04-15T20:40:04.523Z,99.90
2018-04-15T20:42:31.996Z,99.90
2018-04-15T20:44:59.463Z,99.90
2018-04-15T20:47:26.967Z,99.90
2018-04-15T20:49:59.080Z,99.90
2018-04-15T20:52:27.359Z,99.90
2018-04-15T20:54:54.912Z,99.90
2018-04-15T20:57:23.361Z,99.90
2018-04-15T20:59:50.859Z,99.90
2018-04-15T21:02:18.705Z,99.90
2018-04-15T21:04:46.169Z,99.90
2018-04-15T21:07:14.228Z,99.90
2018-04-15T21:09:41.731Z,99.90
2018-04-15T21:12:09.209Z,99.90
2018-04-15T21:14:36.713Z,99.90
2018-04-15T21:17:04.186Z,99.90
2018-04-15T21:19:32.350Z,99.90
2018-04-15T21:22:00.606Z,99.90
2018-04-15T21:24:28.095Z,99.90
2018-04-15T21:26:57.331Z,99.90
2018-04-15T21:29:24.923Z,99.90
2018-04-15T21:31:52.432Z,99.90
2018-04-15T21:34:19.900Z,99.90
2018-04-15T21:36:47.388Z,99.90
2018-04-15T21:39:14.858Z,99.90
2018-04-15T21:41:42.908Z,99.90
2018-04-15T21:44:11.508Z,99.90
2018-04-15T21:46:38.957Z,99.90
2018-04-15T21:49:06.452Z,99.90
2018-04-15T21:51:33.916Z,99.90
2018-04-15T21:54:01.392Z,99.90
2018-04-15T21:56:29.476Z,99.90
2018-04-15T21:58:56.950Z,99.90
2018-04-15T22:01:25.580Z,99.90
2018-04-15T22:03:53.133Z,99.90
2018-04-15T22:06:24.357Z,99.90
2018-04-15T22:08:52.586Z,99.90
2018-04-15T22:14:12.933Z,99.90
2018-04-15T22:16:40.425Z,99.90
2018-04-15T22:19:08.576Z,99.90
2018-04-15T22:21:37.550Z,99.90
2018-04-15T22:24:05.045Z,99.90
2018-04-15T22:26:33.335Z,99.90
2018-04-15T22:29:00.826Z,99.90
2018-04-15T22:31:28.396Z,99.90
2018-04-15T22:33:55.938Z,99.90
2018-04-15T22:36:23.437Z,99.90
2018-04-15T22:38:50.997Z,99.90
2018-04-15T22:41:18.455Z,99.90
2018-04-15T22:43:46.857Z,99.90
2018-04-15T22:46:14.343Z,99.90
2018-04-15T22:48:45.639Z,99.90
2018-04-15T22:51:13.116Z,99.90
2018-04-15T22:53:40.577Z,99.90
2018-04-15T22:56:09.985Z,99.90
2018-04-15T22:58:43.065Z,99.90
2018-04-15T23:01:11.379Z,99.90
2018-04-15T23:03:38.867Z,99.90
2018-04-15T23:06:06.748Z,99.90
2018-04-15T23:08:35.044Z,99.90
2018-04-15T23:11:02.547Z,99.90
2018-04-15T23:13:30.345Z,99.90
2018-04-15T23:15:58.000Z,99.90
2018-04-15T23:18:26.412Z,99.90
2018-04-15T23:20:54.645Z,99.90
2018-04-15T23:23:26.731Z,99.90
2018-04-15T23:25:54.211Z,99.90
2018-04-15T23:28:21.690Z,99.90
2018-04-15T23:30:49.163Z,99.90
2018-04-15T23:33:16.613Z,99.90
2018-04-15T23:35:44.163Z,99.90
2018-04-15T23:38:11.618Z,99.90
2018-04-15T23:40:39.065Z,99.90
2018-04-15T23:43:06.539Z,99.90
2018-04-15T23:45:34.824Z,99.90
2018-04-15T23:48:02.293Z,99.90
2018-04-15T23:50:29.782Z,99.90
2018-04-15T23:52:57.244Z,99.90
2018-04-15T23:55:25.475Z,99.90
2018-04-15T23:57:53.101Z,99.90
